F/V Fleur Des Vagues — FPEJ — position and weather

sailwx.info

Track history (hours):
 
Tides and Currents Weather Stations Pressure Air Temp Water Temp Dewpoint Dewpoint Depression Visibility Wind Speed Wind Dir Waves Ship Positions

F/V Fleur Des Vagues

Last reported at 2017-Jun-27 16:58 UTC. Time now 2017-Jun-27 17:18 UTC.
Position N 46°30' W 001°47'.

Length 16 m.

Type: Fishing. MMSI: 227893000.

Date/timePositionNaut miles runAvg speedWind from/ knotsBaromVisibWave heightAir tempDewpointWater temp
2017-Jun-27 16:58N 46°30' W 001°47'0 0.0
2017-Jun-27 16:28N 46°30' W 001°47'0 0.0
2017-Jun-27 15:58N 46°30' W 001°47'0 0.0
2017-Jun-27 15:28N 46°30' W 001°47'0 0.0
2017-Jun-27 14:58N 46°30' W 001°47'0 0.0
2017-Jun-27 13:58N 46°30' W 001°47'0 0.0
2017-Jun-27 13:28N 46°30' W 001°47'0 0.0
2017-Jun-27 12:58N 46°30' W 001°47'0 0.0
2017-Jun-27 12:28N 46°30' W 001°47'0 0.0
2017-Jun-27 11:58N 46°30' W 001°47'2 3.4
2017-Jun-27 11:30N 46°29' W 001°49'4 8.5
2017-Jun-27 11:00N 46°28' W 001°55'2 3.5
2017-Jun-27 10:29N 46°28' W 001°58'1 2.8
2017-Jun-27 10:00N 46°28' W 001°59'0 0.9
2017-Jun-27 09:30N 46°28' W 001°59'1 1.6
2017-Jun-27 09:00N 46°28' W 001°58'2 4.2
2017-Jun-27 08:30N 46°26' W 001°60'0 0.5
2017-Jun-27 08:00N 46°26' W 001°59'0 0.7
2017-Jun-27 07:30N 46°26' W 001°59'2 3.5
2017-Jun-27 07:00N 46°28' W 001°60'1 1.4
2017-Jun-27 06:30N 46°27' W 001°59'0 0.2
2017-Jun-27 06:00N 46°27' W 001°59'1 1.1
2017-Jun-27 05:30N 46°28' W 001°60'1 2.4
2017-Jun-27 05:00N 46°27' W 001°59'1 2.8
2017-Jun-27 04:30N 46°28' W 001°60'1 2.4
2017-Jun-27 04:00N 46°27' W 001°59'0 0.3
2017-Jun-27 03:30N 46°27' W 001°59'1 2.3
2017-Jun-27 03:00N 46°28' W 001°59'1 1.2
2017-Jun-27 02:30N 46°27' W 001°59'1 2.1
2017-Jun-27 02:00N 46°26' W 001°58'3 6.6
2017-Jun-27 01:30N 46°27' W 001°54'4 8.4
2017-Jun-27 01:00N 46°29' W 001°48'1 2.3
2017-Jun-27 00:30N 46°30' W 001°47'0 0.0
2017-Jun-27 00:00N 46°30' W 001°47'0 0.0
2017-Jun-26 23:30N 46°30' W 001°47'0 0.0
2017-Jun-26 23:00N 46°30' W 001°47'0 0.0
2017-Jun-26 22:30N 46°30' W 001°47'0 0.0
2017-Jun-26 22:00N 46°30' W 001°47'0 0.0
2017-Jun-26 21:30N 46°30' W 001°47'0 0.0
2017-Jun-26 21:00N 46°30' W 001°47'0 0.0
2017-Jun-26 20:30N 46°30' W 001°47'0 0.0
2017-Jun-26 20:00N 46°30' W 001°47'0 0.0
2017-Jun-26 19:30N 46°30' W 001°47'0 0.0
2017-Jun-26 19:00N 46°30' W 001°47'0 0.0
2017-Jun-26 18:30N 46°30' W 001°47'0 0.0
2017-Jun-26 18:00N 46°30' W 001°47'0 0.0
2017-Jun-26 17:30N 46°30' W 001°47'0 0.0
2017-Jun-26 17:00N 46°30' W 001°47'0 0.0
2017-Jun-26 16:30N 46°30' W 001°47'0 0.0
2017-Jun-26 16:00N 46°30' W 001°47'0 0.0
2017-Jun-26 15:30N 46°30' W 001°47'0 0.0
2017-Jun-26 15:00N 46°30' W 001°47'0 0.0
2017-Jun-26 14:30N 46°30' W 001°47'0 0.0
2017-Jun-26 13:30N 46°30' W 001°47'0 0.0
2017-Jun-26 12:54N 46°30' W 001°47'0 0.0
2017-Jun-26 12:30N 46°30' W 001°47'1 2.2
2017-Jun-26 12:01N 46°29' W 001°47'3 5.4
2017-Jun-26 11:31N 46°28' W 001°51'4 8.3
2017-Jun-26 11:01N 46°28' W 001°57'2 4.0
2017-Jun-26 10:31N 46°27' W 001°59'1 1.0
2017-Jun-26 10:00N 46°26' W 001°59'0 0.6
2017-Jun-26 09:31N 46°26' W 001°59'0 0.5
2017-Jun-26 09:00N 46°26' W 001°58'0 0.3
2017-Jun-26 08:31N 46°26' W 001°58'1 1.4
2017-Jun-26 07:57N 46°26' W 001°59'0 0.5
2017-Jun-26 07:28N 46°26' W 001°59'0 0.9
2017-Jun-26 07:00N 46°26' W 001°60'1 1.4
2017-Jun-26 06:30N 46°25' W 001°59'1 2.1
2017-Jun-26 06:00N 46°26' W 002°00'2 2.9
2017-Jun-26 05:29N 46°28' W 002°01'1 2.6
2017-Jun-26 05:00N 46°29' W 002°02'0 0.8
2017-Jun-26 04:30N 46°29' W 002°03'1 2.4
2017-Jun-26 04:00N 46°28' W 002°02'1 2.6
2017-Jun-26 03:30N 46°27' W 002°00'1 2.0
2017-Jun-26 03:00N 46°28' W 001°60'1 2.2
2017-Jun-26 02:30N 46°27' W 001°59'1 1.7
2017-Jun-26 02:00N 46°28' W 001°59'0 0.7
2017-Jun-26 01:28N 46°28' W 001°59'1 2.5
2017-Jun-26 01:01N 46°28' W 001°58'4 8.6
2017-Jun-26 00:31N 46°28' W 001°51'3 6.2
2017-Jun-26 00:01N 46°30' W 001°47'0 0.4
2017-Jun-25 23:30N 46°30' W 001°47'0 0.0
2017-Jun-25 23:00N 46°30' W 001°47'0 0.0
2017-Jun-25 22:30N 46°30' W 001°47'0 0.0
2017-Jun-25 22:00N 46°30' W 001°47'0 0.0
2017-Jun-25 21:30N 46°30' W 001°47'0 0.0
2017-Jun-25 20:57N 46°30' W 001°47'0 0.0
2017-Jun-25 20:30N 46°30' W 001°47'0 0.0
2017-Jun-25 20:00N 46°30' W 001°47'0 0.0
2017-Jun-25 19:30N 46°30' W 001°47'0 0.0
2017-Jun-25 19:00N 46°30' W 001°47'0 0.0
2017-Jun-25 18:30N 46°30' W 001°47'0 0.0
2017-Jun-25 18:00N 46°30' W 001°47'0 0.0
2017-Jun-25 17:30N 46°30' W 001°47'0 0.0
2017-Jun-25 17:00N 46°30' W 001°47'0 0.0
2017-Jun-25 16:30N 46°30' W 001°47'0 0.0
2017-Jun-25 16:00N 46°30' W 001°47'0 0.0
2017-Jun-25 15:30N 46°30' W 001°47'0 0.0
2017-Jun-25 15:00N 46°30' W 001°47'0 0.0
2017-Jun-25 14:30N 46°30' W 001°47'0 0.0
2017-Jun-25 13:30N 46°30' W 001°47'0 0.0
2017-Jun-25 13:00N 46°30' W 001°47'0 0.0
2017-Jun-25 12:30N 46°30' W 001°47'2 4.2
2017-Jun-25 12:00N 46°29' W 001°50'4 8.7
2017-Jun-25 11:30N 46°28' W 001°56'3 5.2
2017-Jun-25 11:00N 46°28' W 001°59'2 3.3
2017-Jun-25 10:30N 46°26' W 001°59'1 1.6
2017-Jun-25 10:00N 46°25' W 001°59'4 7.7
2017-Jun-25 09:30N 46°29' W 002°02'3 5.4
2017-Jun-25 09:00N 46°26' W 002°01'1 2.0
2017-Jun-25 08:30N 46°26' W 001°59'1 1.7
2017-Jun-25 07:58N 46°25' W 001°59'0 0.8
2017-Jun-25 07:29N 46°25' W 001°59'1 2.1
2017-Jun-25 07:00N 46°26' W 001°59'1 1.5
2017-Jun-25 06:30N 46°25' W 001°59'1 1.2
2017-Jun-25 06:00N 46°25' W 001°58'1 2.2
2017-Jun-25 05:29N 46°26' W 001°59'0 0.8
2017-Jun-25 05:00N 46°26' W 001°58'1 1.8
2017-Jun-25 04:30N 46°27' W 001°59'1 2.0
2017-Jun-25 04:01N 46°28' W 001°60'1 1.4
2017-Jun-25 03:29N 46°27' W 001°59'0 0.3
2017-Jun-25 02:58N 46°27' W 001°59'1 1.3
2017-Jun-25 02:28N 46°28' W 001°59'1 2.0
2017-Jun-25 02:00N 46°27' W 001°58'0 0.4
2017-Jun-25 01:31N 46°27' W 001°58'1 1.7
2017-Jun-25 01:00N 46°28' W 001°58'4 7.9
2017-Jun-25 00:30N 46°28' W 001°52'3 6.7
2017-Jun-25 00:00N 46°30' W 001°48'0 0.8
2017-Jun-24 23:30N 46°30' W 001°47'0 0.0
2017-Jun-24 23:00N 46°30' W 001°47'0 0.0
2017-Jun-24 22:30N 46°30' W 001°47'0 0.0
2017-Jun-24 22:00N 46°30' W 001°47'0 0.0
2017-Jun-24 21:30N 46°30' W 001°47'0 0.0
2017-Jun-24 21:00N 46°30' W 001°47'0 0.0
2017-Jun-24 20:30N 46°30' W 001°47'0 0.0
2017-Jun-24 20:00N 46°30' W 001°47'0 0.0
2017-Jun-24 19:30N 46°30' W 001°47'0 0.0
2017-Jun-24 19:00N 46°30' W 001°47'0 0.0
2017-Jun-24 18:30N 46°30' W 001°47'0 0.0
2017-Jun-24 18:00N 46°30' W 001°47'0 0.0
2017-Jun-24 17:30N 46°30' W 001°47'0 0.0
2017-Jun-24 17:00N 46°30' W 001°47'0 0.0
2017-Jun-24 16:30N 46°30' W 001°47'0 0.0
2017-Jun-24 16:00N 46°30' W 001°47'0 0.0
2017-Jun-24 15:30N 46°30' W 001°47'0 0.0
2017-Jun-24 15:00N 46°30' W 001°47'0 0.0
2017-Jun-24 14:00N 46°30' W 001°47'0 0.0
2017-Jun-24 13:30N 46°30' W 001°47'0 0.0
2017-Jun-24 13:00N 46°30' W 001°47'0 0.0
2017-Jun-24 12:30N 46°30' W 001°47'1 2.4
2017-Jun-24 12:00N 46°29' W 001°48'5 9.3
2017-Jun-24 11:30N 46°28' W 001°55'3 5.8
2017-Jun-24 11:00N 46°27' W 001°58'1 2.0
2017-Jun-24 10:30N 46°27' W 001°60'3 5.5
2017-Jun-24 10:00N 46°25' W 001°58'0 1.0
2017-Jun-24 09:30N 46°25' W 001°59'2 4.7
2017-Jun-24 09:00N 46°27' W 002°01'1 2.0
2017-Jun-24 08:30N 46°26' W 002°00'1 1.6
2017-Jun-24 07:59N 46°25' W 001°60'1 1.8
2017-Jun-24 07:30N 46°26' W 002°00'1 1.5
2017-Jun-24 07:00N 46°27' W 002°00'1 2.0
2017-Jun-24 06:30N 46°26' W 001°60'1 1.1
2017-Jun-24 05:59N 46°26' W 001°59'1 2.1
2017-Jun-24 05:30N 46°27' W 001°60'0 0.8
2017-Jun-24 05:00N 46°27' W 001°59'0 0.5
2017-Jun-24 04:28N 46°27' W 001°59'1 1.2
2017-Jun-24 04:00N 46°26' W 001°59'0 0.8
2017-Jun-24 03:30N 46°26' W 001°58'1 1.8
2017-Jun-24 03:00N 46°27' W 001°59'0 0.8
2017-Jun-24 02:30N 46°27' W 001°59'1 2.1
2017-Jun-24 02:00N 46°26' W 001°58'0 0.8
2017-Jun-24 01:31N 46°27' W 001°58'1 1.6
2017-Jun-24 01:00N 46°27' W 001°58'4 8.3
2017-Jun-24 00:30N 46°28' W 001°52'4 7.3
2017-Jun-24 00:00N 46°30' W 001°47'0 1.0
2017-Jun-23 23:29N 46°30' W 001°47'0 0.0
2017-Jun-23 22:59N 46°30' W 001°47'0 0.0
2017-Jun-23 22:29N 46°30' W 001°47'0 0.0
2017-Jun-23 21:59N 46°30' W 001°47'0 0.0
2017-Jun-23 21:29N 46°30' W 001°47'0 0.0
2017-Jun-23 20:59N 46°30' W 001°47'0 0.0
2017-Jun-23 20:29N 46°30' W 001°47'0 0.0
2017-Jun-23 19:59N 46°30' W 001°47'0 0.0
2017-Jun-23 19:29N 46°30' W 001°47'0 0.0
2017-Jun-23 18:59N 46°30' W 001°47'0 0.0
2017-Jun-23 18:29N 46°30' W 001°47'0 0.0
2017-Jun-23 17:59N 46°30' W 001°47'0 0.0
2017-Jun-23 17:29N 46°30' W 001°47'0 0.0
2017-Jun-23 16:59N 46°30' W 001°47'0 0.0
2017-Jun-23 16:29N 46°30' W 001°47'0 0.0
2017-Jun-23 15:59N 46°30' W 001°47'0 0.0
2017-Jun-23 15:29N 46°30' W 001°47'0 0.0
2017-Jun-23 14:59N 46°30' W 001°47'0 0.0
2017-Jun-23 13:59N 46°30' W 001°47'0 0.0
2017-Jun-23 13:29N 46°30' W 001°47'0 0.0
2017-Jun-23 12:59N 46°30' W 001°47'0 0.0
2017-Jun-23 12:29N 46°30' W 001°47'1 1.1
2017-Jun-23 12:00N 46°29' W 001°47'4 8.5
2017-Jun-23 11:31N 46°28' W 001°53'4 7.5
2017-Jun-23 11:00N 46°27' W 001°58'1 1.2
2017-Jun-23 10:31N 46°26' W 001°59'0 1.0
2017-Jun-23 10:01N 46°26' W 001°59'0 0.9
2017-Jun-23 09:31N 46°26' W 001°60'2 3.6
2017-Jun-23 09:00N 46°28' W 001°60'2 3.3
2017-Jun-23 08:30N 46°28' W 001°58'1 2.4
2017-Jun-23 08:00N 46°30' W 001°58'1 1.4
2017-Jun-23 07:30N 46°29' W 001°58'1 1.8
2017-Jun-23 07:00N 46°28' W 001°57'1 2.3
2017-Jun-23 06:30N 46°29' W 001°58'0 1.0
2017-Jun-23 06:00N 46°30' W 001°58'1 2.1
2017-Jun-23 05:30N 46°29' W 001°57'0 0.4
2017-Jun-23 04:56N 46°29' W 001°57'1 1.3
2017-Jun-23 04:30N 46°29' W 001°57'1 1.1
2017-Jun-23 04:00N 46°30' W 001°57'1 2.1
2017-Jun-23 03:30N 46°29' W 001°57'0 0.7
2017-Jun-23 03:01N 46°29' W 001°57'1 2.1
2017-Jun-23 02:30N 46°30' W 001°57'0 0.5
2017-Jun-23 01:59N 46°30' W 001°57'1 1.7
2017-Jun-23 01:30N 46°29' W 001°57'1 1.3
2017-Jun-23 01:00N 46°29' W 001°56'3 6.9
2017-Jun-23 00:31N 46°29' W 001°51'3 5.4
2017-Jun-23 00:00N 46°30' W 001°47'0 0.4
2017-Jun-22 23:28N 46°30' W 001°47'0 0.0
2017-Jun-22 22:58N 46°30' W 001°47'0 0.0
2017-Jun-22 22:28N 46°30' W 001°47'0 0.0
2017-Jun-22 21:58N 46°30' W 001°47'0 0.0
2017-Jun-22 21:28N 46°30' W 001°47'0 0.0
2017-Jun-22 20:58N 46°30' W 001°47'0 0.0
2017-Jun-22 20:28N 46°30' W 001°47'0 0.0
2017-Jun-22 19:58N 46°30' W 001°47'0 0.0
2017-Jun-22 19:28N 46°30' W 001°47'0 0.0
2017-Jun-22 18:58N 46°30' W 001°47'0 0.0
2017-Jun-22 18:28N 46°30' W 001°47'0 0.0
2017-Jun-22 17:58N 46°30' W 001°47'0 0.0
2017-Jun-22 17:28N 46°30' W 001°47'0 0.0
2017-Jun-22 16:58N 46°30' W 001°47'0 0.0
2017-Jun-22 16:28N 46°30' W 001°47'0 0.0
2017-Jun-22 15:58N 46°30' W 001°47'0 0.0
2017-Jun-22 15:28N 46°30' W 001°47'0 0.0
2017-Jun-22 14:58N 46°30' W 001°47'0 0.0
2017-Jun-22 13:58N 46°30' W 001°47'0 0.0
2017-Jun-22 13:28N 46°30' W 001°47'0 0.0
2017-Jun-22 12:58N 46°30' W 001°47'0 0.0
2017-Jun-22 12:28N 46°30' W 001°47'0 0.0
2017-Jun-22 11:58N 46°30' W 001°47'0 0.0
2017-Jun-22 11:28N 46°30' W 001°47'2 4.7
2017-Jun-22 11:00N 46°29' W 001°50'4 9.0
2017-Jun-22 10:31N 46°29' W 001°56'0 0.9
2017-Jun-22 10:01N 46°29' W 001°57'1 1.4
2017-Jun-22 09:31N 46°28' W 001°57'1 1.1
2017-Jun-22 09:01N 46°28' W 001°57'0 0.6
2017-Jun-22 08:30N 46°28' W 001°57'5 8.0
2017-Jun-22 07:52N 46°27' W 002°05'1 1.3
2017-Jun-22 07:20N 46°28' W 002°05'0 1.2
2017-Jun-22 07:00N 46°28' W 002°05'1 1.8
2017-Jun-22 06:28N 46°28' W 002°05'0 0.6
2017-Jun-22 06:00N 46°28' W 002°05'1 1.6
2017-Jun-22 05:29N 46°29' W 002°05'1 1.8
2017-Jun-22 05:00N 46°28' W 002°05'0 0.4
2017-Jun-22 04:28N 46°28' W 002°04'1 2.0
2017-Jun-22 04:00N 46°29' W 002°05'0 0.3
2017-Jun-22 03:30N 46°29' W 002°05'1 1.4
2017-Jun-22 03:00N 46°28' W 002°04'1 1.3
2017-Jun-22 02:30N 46°28' W 002°04'1 1.3
2017-Jun-22 02:00N 46°28' W 002°04'1 1.7
2017-Jun-22 01:30N 46°29' W 002°05'1 1.7
2017-Jun-22 01:00N 46°28' W 002°04'0 0.5
2017-Jun-22 00:30N 46°28' W 002°04'1 1.4
2017-Jun-21 23:56N 46°29' W 002°04'1 2.0
2017-Jun-21 23:30N 46°28' W 002°03'0 0.3
2017-Jun-21 22:59N 46°28' W 002°03'0 0.0
2017-Jun-21 22:29N 46°28' W 002°03'0 0.0
2017-Jun-21 21:59N 46°28' W 002°03'0 0.0
2017-Jun-21 21:26N 46°28' W 002°03'0 0.0
2017-Jun-21 20:59N 46°28' W 002°03'0 0.0
2017-Jun-21 20:29N 46°28' W 002°03'0 0.0
2017-Jun-21 19:59N 46°28' W 002°03'0 0.0
2017-Jun-21 19:29N 46°28' W 002°03'0 0.0
2017-Jun-21 18:59N 46°28' W 002°03'0 0.0
2017-Jun-21 18:29N 46°28' W 002°03'0 0.0
2017-Jun-21 17:59N 46°28' W 002°03'0 0.0
2017-Jun-21 17:29N 46°28' W 002°03'0 0.0
2017-Jun-21 16:59N 46°28' W 002°03'0 0.0
2017-Jun-21 16:26N 46°28' W 002°03'0 0.0
2017-Jun-21 15:56N 46°28' W 002°03'0 0.0
2017-Jun-21 15:29N 46°28' W 002°03'0 0.0
2017-Jun-21 14:59N 46°28' W 002°03'0 0.0
2017-Jun-21 13:59N 46°28' W 002°03'0 0.6
2017-Jun-21 13:30N 46°28' W 002°03'1 1.4
2017-Jun-21 13:00N 46°28' W 002°04'1 1.6
2017-Jun-21 12:30N 46°29' W 002°05'1 2.2
2017-Jun-21 12:00N 46°28' W 002°05'4 7.7
2017-Jun-21 11:30N 46°25' W 002°01'4 7.9
2017-Jun-21 11:00N 46°23' W 001°57'4 7.9
2017-Jun-21 10:30N 46°20' W 001°52'3 6.7
2017-Jun-21 09:59N 46°17' W 001°49'0 0.2
2017-Jun-21 09:29N 46°17' W 001°49'0 0.3
2017-Jun-21 08:59N 46°17' W 001°49'0 0.2
2017-Jun-21 08:29N 46°17' W 001°49'1 1.1
2017-Jun-21 08:00N 46°17' W 001°48'0 0.8
2017-Jun-21 07:30N 46°17' W 001°48'0 0.4
2017-Jun-21 07:00N 46°17' W 001°48'0 0.7
2017-Jun-21 06:30N 46°17' W 001°48'1 1.0
2017-Jun-21 06:00N 46°17' W 001°48'0 0.7
2017-Jun-21 05:29N 46°17' W 001°48'0 0.4
2017-Jun-21 05:00N 46°17' W 001°48'0 0.3
2017-Jun-21 04:30N 46°17' W 001°47'0 0.7
2017-Jun-21 03:52N 46°17' W 001°48'0 0.2
2017-Jun-21 03:30N 46°18' W 001°48'1 1.4
2017-Jun-21 02:59N 46°17' W 001°47'1 1.6
2017-Jun-21 02:27N 46°18' W 001°48'0 0.4
2017-Jun-21 01:59N 46°18' W 001°47'1 0.9
2017-Jun-21 01:23N 46°17' W 001°47'1 1.4
2017-Jun-21 00:59N 46°18' W 001°47'1 1.2
2017-Jun-21 00:30N 46°18' W 001°48'0 0.5
2017-Jun-21 00:00N 46°18' W 001°48'0 0.0
2017-Jun-20 23:30N 46°18' W 001°48'0 0.1
2017-Jun-20 23:00N 46°18' W 001°48'0 0.0
2017-Jun-20 22:30N 46°18' W 001°48'0 0.0
2017-Jun-20 22:00N 46°18' W 001°48'0 0.0
2017-Jun-20 21:30N 46°18' W 001°48'0 0.0
2017-Jun-20 21:00N 46°18' W 001°48'0 0.0
2017-Jun-20 20:30N 46°18' W 001°48'0 0.0
2017-Jun-20 20:00N 46°18' W 001°48'0 0.0
2017-Jun-20 19:30N 46°18' W 001°48'0 0.1
2017-Jun-20 19:00N 46°18' W 001°48'0 0.1
2017-Jun-20 18:30N 46°18' W 001°48'0 0.0
2017-Jun-20 18:00N 46°18' W 001°48'0 0.0
2017-Jun-20 17:30N 46°18' W 001°48'0 0.0
2017-Jun-20 16:51N 46°18' W 001°48'0 0.0
2017-Jun-20 16:06N 46°18' W 001°48'0 0.0
2017-Jun-20 15:57N 46°18' W 001°48'0 0.1
2017-Jun-20 15:21N 46°18' W 001°48'0 0.1
2017-Jun-20 14:57N 46°18' W 001°48'0 0.0
2017-Jun-20 14:30N 46°18' W 001°48'1 1.3
2017-Jun-20 13:30N 46°17' W 001°49'1 1.1
2017-Jun-20 13:00N 46°17' W 001°49'1 1.7
2017-Jun-20 12:30N 46°17' W 001°47'1 1.9
2017-Jun-20 12:00N 46°18' W 001°48'1 2.7
2017-Jun-20 11:30N 46°19' W 001°47'4 8.3
2017-Jun-20 11:00N 46°24' W 001°47'4 8.3
2017-Jun-20 10:30N 46°28' W 001°47'2 4.3
2017-Jun-20 09:59N 46°30' W 001°47'0 0.0
2017-Jun-20 09:29N 46°30' W 001°47'0 0.0
2017-Jun-20 09:00N 46°30' W 001°47'0 0.3
2017-Jun-20 08:30N 46°30' W 001°47'0 0.0
2017-Jun-20 08:00N 46°30' W 001°47'0 0.0
2017-Jun-20 07:30N 46°30' W 001°47'0 0.0
2017-Jun-20 07:00N 46°30' W 001°47'0 0.0
2017-Jun-20 06:30N 46°30' W 001°47'  
Track history (hours):
 
Tides and Currents Weather Stations Pressure Air Temp Water Temp Dewpoint Dewpoint Depression Visibility Wind Speed Wind Dir Waves Ship Positions

F/V Fleur Des Vagues

Last reported at 2017-Jun-27 16:58 UTC. Time now 2017-Jun-27 17:18 UTC.
Position N 46°30' W 001°47'.

Length 16 m.

Type: Fishing. MMSI: 227893000.

Date/timePositionNaut miles runAvg speedWind from/ knotsBaromVisibWave heightAir tempDewpointWater temp
2017-Jun-27 16:58N 46°30' W 001°47'0 0.0
2017-Jun-27 16:28N 46°30' W 001°47'0 0.0
2017-Jun-27 15:58N 46°30' W 001°47'0 0.0
2017-Jun-27 15:28N 46°30' W 001°47'0 0.0
2017-Jun-27 14:58N 46°30' W 001°47'0 0.0
2017-Jun-27 13:58N 46°30' W 001°47'0 0.0
2017-Jun-27 13:28N 46°30' W 001°47'0 0.0
2017-Jun-27 12:58N 46°30' W 001°47'0 0.0
2017-Jun-27 12:28N 46°30' W 001°47'0 0.0
2017-Jun-27 11:58N 46°30' W 001°47'2 3.4
2017-Jun-27 11:30N 46°29' W 001°49'4 8.5
2017-Jun-27 11:00N 46°28' W 001°55'2 3.5
2017-Jun-27 10:29N 46°28' W 001°58'1 2.8
2017-Jun-27 10:00N 46°28' W 001°59'0 0.9
2017-Jun-27 09:30N 46°28' W 001°59'1 1.6
2017-Jun-27 09:00N 46°28' W 001°58'2 4.2
2017-Jun-27 08:30N 46°26' W 001°60'0 0.5
2017-Jun-27 08:00N 46°26' W 001°59'0 0.7
2017-Jun-27 07:30N 46°26' W 001°59'2 3.5
2017-Jun-27 07:00N 46°28' W 001°60'1 1.4
2017-Jun-27 06:30N 46°27' W 001°59'0 0.2
2017-Jun-27 06:00N 46°27' W 001°59'1 1.1
2017-Jun-27 05:30N 46°28' W 001°60'1 2.4
2017-Jun-27 05:00N 46°27' W 001°59'1 2.8
2017-Jun-27 04:30N 46°28' W 001°60'1 2.4
2017-Jun-27 04:00N 46°27' W 001°59'0 0.3
2017-Jun-27 03:30N 46°27' W 001°59'1 2.3
2017-Jun-27 03:00N 46°28' W 001°59'1 1.2
2017-Jun-27 02:30N 46°27' W 001°59'1 2.1
2017-Jun-27 02:00N 46°26' W 001°58'3 6.6
2017-Jun-27 01:30N 46°27' W 001°54'4 8.4
2017-Jun-27 01:00N 46°29' W 001°48'1 2.3
2017-Jun-27 00:30N 46°30' W 001°47'0 0.0
2017-Jun-27 00:00N 46°30' W 001°47'0 0.0
2017-Jun-26 23:30N 46°30' W 001°47'0 0.0
2017-Jun-26 23:00N 46°30' W 001°47'0 0.0
2017-Jun-26 22:30N 46°30' W 001°47'0 0.0
2017-Jun-26 22:00N 46°30' W 001°47'0 0.0
2017-Jun-26 21:30N 46°30' W 001°47'0 0.0
2017-Jun-26 21:00N 46°30' W 001°47'0 0.0
2017-Jun-26 20:30N 46°30' W 001°47'0 0.0
2017-Jun-26 20:00N 46°30' W 001°47'0 0.0
2017-Jun-26 19:30N 46°30' W 001°47'0 0.0
2017-Jun-26 19:00N 46°30' W 001°47'0 0.0
2017-Jun-26 18:30N 46°30' W 001°47'0 0.0
2017-Jun-26 18:00N 46°30' W 001°47'0 0.0
2017-Jun-26 17:30N 46°30' W 001°47'0 0.0
2017-Jun-26 17:00N 46°30' W 001°47'0 0.0
2017-Jun-26 16:30N 46°30' W 001°47'0 0.0
2017-Jun-26 16:00N 46°30' W 001°47'0 0.0
2017-Jun-26 15:30N 46°30' W 001°47'0 0.0
2017-Jun-26 15:00N 46°30' W 001°47'0 0.0
2017-Jun-26 14:30N 46°30' W 001°47'0 0.0
2017-Jun-26 13:30N 46°30' W 001°47'0 0.0
2017-Jun-26 12:54N 46°30' W 001°47'0 0.0
2017-Jun-26 12:30N 46°30' W 001°47'1 2.2
2017-Jun-26 12:01N 46°29' W 001°47'3 5.4
2017-Jun-26 11:31N 46°28' W 001°51'4 8.3
2017-Jun-26 11:01N 46°28' W 001°57'2 4.0
2017-Jun-26 10:31N 46°27' W 001°59'1 1.0
2017-Jun-26 10:00N 46°26' W 001°59'0 0.6
2017-Jun-26 09:31N 46°26' W 001°59'0 0.5
2017-Jun-26 09:00N 46°26' W 001°58'0 0.3
2017-Jun-26 08:31N 46°26' W 001°58'1 1.4
2017-Jun-26 07:57N 46°26' W 001°59'0 0.5
2017-Jun-26 07:28N 46°26' W 001°59'0 0.9
2017-Jun-26 07:00N 46°26' W 001°60'1 1.4
2017-Jun-26 06:30N 46°25' W 001°59'1 2.1
2017-Jun-26 06:00N 46°26' W 002°00'2 2.9
2017-Jun-26 05:29N 46°28' W 002°01'1 2.6
2017-Jun-26 05:00N 46°29' W 002°02'0 0.8
2017-Jun-26 04:30N 46°29' W 002°03'1 2.4
2017-Jun-26 04:00N 46°28' W 002°02'1 2.6
2017-Jun-26 03:30N 46°27' W 002°00'1 2.0
2017-Jun-26 03:00N 46°28' W 001°60'1 2.2
2017-Jun-26 02:30N 46°27' W 001°59'1 1.7
2017-Jun-26 02:00N 46°28' W 001°59'0 0.7
2017-Jun-26 01:28N 46°28' W 001°59'1 2.5
2017-Jun-26 01:01N 46°28' W 001°58'4 8.6
2017-Jun-26 00:31N 46°28' W 001°51'3 6.2
2017-Jun-26 00:01N 46°30' W 001°47'0 0.4
2017-Jun-25 23:30N 46°30' W 001°47'0 0.0
2017-Jun-25 23:00N 46°30' W 001°47'0 0.0
2017-Jun-25 22:30N 46°30' W 001°47'0 0.0
2017-Jun-25 22:00N 46°30' W 001°47'0 0.0
2017-Jun-25 21:30N 46°30' W 001°47'0 0.0
2017-Jun-25 20:57N 46°30' W 001°47'0 0.0
2017-Jun-25 20:30N 46°30' W 001°47'0 0.0
2017-Jun-25 20:00N 46°30' W 001°47'0 0.0
2017-Jun-25 19:30N 46°30' W 001°47'0 0.0
2017-Jun-25 19:00N 46°30' W 001°47'0 0.0
2017-Jun-25 18:30N 46°30' W 001°47'0 0.0
2017-Jun-25 18:00N 46°30' W 001°47'0 0.0
2017-Jun-25 17:30N 46°30' W 001°47'0 0.0
2017-Jun-25 17:00N 46°30' W 001°47'0 0.0
2017-Jun-25 16:30N 46°30' W 001°47'0 0.0
2017-Jun-25 16:00N 46°30' W 001°47'0 0.0
2017-Jun-25 15:30N 46°30' W 001°47'0 0.0
2017-Jun-25 15:00N 46°30' W 001°47'0 0.0
2017-Jun-25 14:30N 46°30' W 001°47'0 0.0
2017-Jun-25 13:30N 46°30' W 001°47'0 0.0
2017-Jun-25 13:00N 46°30' W 001°47'0 0.0
2017-Jun-25 12:30N 46°30' W 001°47'2 4.2
2017-Jun-25 12:00N 46°29' W 001°50'4 8.7
2017-Jun-25 11:30N 46°28' W 001°56'3 5.2
2017-Jun-25 11:00N 46°28' W 001°59'2 3.3
2017-Jun-25 10:30N 46°26' W 001°59'1 1.6
2017-Jun-25 10:00N 46°25' W 001°59'4 7.7
2017-Jun-25 09:30N 46°29' W 002°02'3 5.4
2017-Jun-25 09:00N 46°26' W 002°01'1 2.0
2017-Jun-25 08:30N 46°26' W 001°59'1 1.7
2017-Jun-25 07:58N 46°25' W 001°59'0 0.8
2017-Jun-25 07:29N 46°25' W 001°59'1 2.1
2017-Jun-25 07:00N 46°26' W 001°59'1 1.5
2017-Jun-25 06:30N 46°25' W 001°59'1 1.2
2017-Jun-25 06:00N 46°25' W 001°58'1 2.2
2017-Jun-25 05:29N 46°26' W 001°59'0 0.8
2017-Jun-25 05:00N 46°26' W 001°58'1 1.8
2017-Jun-25 04:30N 46°27' W 001°59'1 2.0
2017-Jun-25 04:01N 46°28' W 001°60'1 1.4
2017-Jun-25 03:29N 46°27' W 001°59'0 0.3
2017-Jun-25 02:58N 46°27' W 001°59'1 1.3
2017-Jun-25 02:28N 46°28' W 001°59'1 2.0
2017-Jun-25 02:00N 46°27' W 001°58'0 0.4
2017-Jun-25 01:31N 46°27' W 001°58'1 1.7
2017-Jun-25 01:00N 46°28' W 001°58'4 7.9
2017-Jun-25 00:30N 46°28' W 001°52'3 6.7
2017-Jun-25 00:00N 46°30' W 001°48'0 0.8
2017-Jun-24 23:30N 46°30' W 001°47'0 0.0
2017-Jun-24 23:00N 46°30' W 001°47'0 0.0
2017-Jun-24 22:30N 46°30' W 001°47'0 0.0
2017-Jun-24 22:00N 46°30' W 001°47'0 0.0
2017-Jun-24 21:30N 46°30' W 001°47'0 0.0
2017-Jun-24 21:00N 46°30' W 001°47'0 0.0
2017-Jun-24 20:30N 46°30' W 001°47'0 0.0
2017-Jun-24 20:00N 46°30' W 001°47'0 0.0
2017-Jun-24 19:30N 46°30' W 001°47'0 0.0
2017-Jun-24 19:00N 46°30' W 001°47'0 0.0
2017-Jun-24 18:30N 46°30' W 001°47'0 0.0
2017-Jun-24 18:00N 46°30' W 001°47'0 0.0
2017-Jun-24 17:30N 46°30' W 001°47'0 0.0
2017-Jun-24 17:00N 46°30' W 001°47'0 0.0
2017-Jun-24 16:30N 46°30' W 001°47'0 0.0
2017-Jun-24 16:00N 46°30' W 001°47'0 0.0
2017-Jun-24 15:30N 46°30' W 001°47'0 0.0
2017-Jun-24 15:00N 46°30' W 001°47'0 0.0
2017-Jun-24 14:00N 46°30' W 001°47'0 0.0
2017-Jun-24 13:30N 46°30' W 001°47'0 0.0
2017-Jun-24 13:00N 46°30' W 001°47'0 0.0
2017-Jun-24 12:30N 46°30' W 001°47'1 2.4
2017-Jun-24 12:00N 46°29' W 001°48'5 9.3
2017-Jun-24 11:30N 46°28' W 001°55'3 5.8
2017-Jun-24 11:00N 46°27' W 001°58'1 2.0
2017-Jun-24 10:30N 46°27' W 001°60'3 5.5
2017-Jun-24 10:00N 46°25' W 001°58'0 1.0
2017-Jun-24 09:30N 46°25' W 001°59'2 4.7
2017-Jun-24 09:00N 46°27' W 002°01'1 2.0
2017-Jun-24 08:30N 46°26' W 002°00'1 1.6
2017-Jun-24 07:59N 46°25' W 001°60'1 1.8
2017-Jun-24 07:30N 46°26' W 002°00'1 1.5
2017-Jun-24 07:00N 46°27' W 002°00'1 2.0
2017-Jun-24 06:30N 46°26' W 001°60'1 1.1
2017-Jun-24 05:59N 46°26' W 001°59'1 2.1
2017-Jun-24 05:30N 46°27' W 001°60'0 0.8
2017-Jun-24 05:00N 46°27' W 001°59'0 0.5
2017-Jun-24 04:28N 46°27' W 001°59'1 1.2
2017-Jun-24 04:00N 46°26' W 001°59'0 0.8
2017-Jun-24 03:30N 46°26' W 001°58'1 1.8
2017-Jun-24 03:00N 46°27' W 001°59'0 0.8
2017-Jun-24 02:30N 46°27' W 001°59'1 2.1
2017-Jun-24 02:00N 46°26' W 001°58'0 0.8
2017-Jun-24 01:31N 46°27' W 001°58'1 1.6
2017-Jun-24 01:00N 46°27' W 001°58'4 8.3
2017-Jun-24 00:30N 46°28' W 001°52'4 7.3
2017-Jun-24 00:00N 46°30' W 001°47'0 1.0
2017-Jun-23 23:29N 46°30' W 001°47'0 0.0
2017-Jun-23 22:59N 46°30' W 001°47'0 0.0
2017-Jun-23 22:29N 46°30' W 001°47'0 0.0
2017-Jun-23 21:59N 46°30' W 001°47'0 0.0
2017-Jun-23 21:29N 46°30' W 001°47'0 0.0
2017-Jun-23 20:59N 46°30' W 001°47'0 0.0
2017-Jun-23 20:29N 46°30' W 001°47'0 0.0
2017-Jun-23 19:59N 46°30' W 001°47'0 0.0
2017-Jun-23 19:29N 46°30' W 001°47'0 0.0
2017-Jun-23 18:59N 46°30' W 001°47'0 0.0
2017-Jun-23 18:29N 46°30' W 001°47'0 0.0
2017-Jun-23 17:59N 46°30' W 001°47'0 0.0
2017-Jun-23 17:29N 46°30' W 001°47'0 0.0
2017-Jun-23 16:59N 46°30' W 001°47'0 0.0
2017-Jun-23 16:29N 46°30' W 001°47'0 0.0
2017-Jun-23 15:59N 46°30' W 001°47'0 0.0
2017-Jun-23 15:29N 46°30' W 001°47'0 0.0
2017-Jun-23 14:59N 46°30' W 001°47'0 0.0
2017-Jun-23 13:59N 46°30' W 001°47'0 0.0
2017-Jun-23 13:29N 46°30' W 001°47'0 0.0
2017-Jun-23 12:59N 46°30' W 001°47'0 0.0
2017-Jun-23 12:29N 46°30' W 001°47'1 1.1
2017-Jun-23 12:00N 46°29' W 001°47'4 8.5
2017-Jun-23 11:31N 46°28' W 001°53'4 7.5
2017-Jun-23 11:00N 46°27' W 001°58'1 1.2
2017-Jun-23 10:31N 46°26' W 001°59'0 1.0
2017-Jun-23 10:01N 46°26' W 001°59'0 0.9
2017-Jun-23 09:31N 46°26' W 001°60'2 3.6
2017-Jun-23 09:00N 46°28' W 001°60'2 3.3
2017-Jun-23 08:30N 46°28' W 001°58'1 2.4
2017-Jun-23 08:00N 46°30' W 001°58'1 1.4
2017-Jun-23 07:30N 46°29' W 001°58'1 1.8
2017-Jun-23 07:00N 46°28' W 001°57'1 2.3
2017-Jun-23 06:30N 46°29' W 001°58'0 1.0
2017-Jun-23 06:00N 46°30' W 001°58'1 2.1
2017-Jun-23 05:30N 46°29' W 001°57'0 0.4
2017-Jun-23 04:56N 46°29' W 001°57'1 1.3
2017-Jun-23 04:30N 46°29' W 001°57'1 1.1
2017-Jun-23 04:00N 46°30' W 001°57'1 2.1
2017-Jun-23 03:30N 46°29' W 001°57'0 0.7
2017-Jun-23 03:01N 46°29' W 001°57'1 2.1
2017-Jun-23 02:30N 46°30' W 001°57'0 0.5
2017-Jun-23 01:59N 46°30' W 001°57'1 1.7
2017-Jun-23 01:30N 46°29' W 001°57'1 1.3
2017-Jun-23 01:00N 46°29' W 001°56'3 6.9
2017-Jun-23 00:31N 46°29' W 001°51'3 5.4
2017-Jun-23 00:00N 46°30' W 001°47'0 0.4
2017-Jun-22 23:28N 46°30' W 001°47'0 0.0
2017-Jun-22 22:58N 46°30' W 001°47'0 0.0
2017-Jun-22 22:28N 46°30' W 001°47'0 0.0
2017-Jun-22 21:58N 46°30' W 001°47'0 0.0
2017-Jun-22 21:28N 46°30' W 001°47'0 0.0
2017-Jun-22 20:58N 46°30' W 001°47'0 0.0
2017-Jun-22 20:28N 46°30' W 001°47'0 0.0
2017-Jun-22 19:58N 46°30' W 001°47'0 0.0
2017-Jun-22 19:28N 46°30' W 001°47'0 0.0
2017-Jun-22 18:58N 46°30' W 001°47'0 0.0
2017-Jun-22 18:28N 46°30' W 001°47'0 0.0
2017-Jun-22 17:58N 46°30' W 001°47'0 0.0
2017-Jun-22 17:28N 46°30' W 001°47'0 0.0
2017-Jun-22 16:58N 46°30' W 001°47'0 0.0
2017-Jun-22 16:28N 46°30' W 001°47'0 0.0
2017-Jun-22 15:58N 46°30' W 001°47'0 0.0
2017-Jun-22 15:28N 46°30' W 001°47'0 0.0
2017-Jun-22 14:58N 46°30' W 001°47'0 0.0
2017-Jun-22 13:58N 46°30' W 001°47'0 0.0
2017-Jun-22 13:28N 46°30' W 001°47'0 0.0
2017-Jun-22 12:58N 46°30' W 001°47'0 0.0
2017-Jun-22 12:28N 46°30' W 001°47'0 0.0
2017-Jun-22 11:58N 46°30' W 001°47'0 0.0
2017-Jun-22 11:28N 46°30' W 001°47'2 4.7
2017-Jun-22 11:00N 46°29' W 001°50'4 9.0
2017-Jun-22 10:31N 46°29' W 001°56'0 0.9
2017-Jun-22 10:01N 46°29' W 001°57'1 1.4
2017-Jun-22 09:31N 46°28' W 001°57'1 1.1
2017-Jun-22 09:01N 46°28' W 001°57'0 0.6
2017-Jun-22 08:30N 46°28' W 001°57'5 8.0
2017-Jun-22 07:52N 46°27' W 002°05'1 1.3
2017-Jun-22 07:20N 46°28' W 002°05'0 1.2
2017-Jun-22 07:00N 46°28' W 002°05'1 1.8
2017-Jun-22 06:28N 46°28' W 002°05'0 0.6
2017-Jun-22 06:00N 46°28' W 002°05'1 1.6
2017-Jun-22 05:29N 46°29' W 002°05'1 1.8
2017-Jun-22 05:00N 46°28' W 002°05'0 0.4
2017-Jun-22 04:28N 46°28' W 002°04'1 2.0
2017-Jun-22 04:00N 46°29' W 002°05'0 0.3
2017-Jun-22 03:30N 46°29' W 002°05'1 1.4
2017-Jun-22 03:00N 46°28' W 002°04'1 1.3
2017-Jun-22 02:30N 46°28' W 002°04'1 1.3
2017-Jun-22 02:00N 46°28' W 002°04'1 1.7
2017-Jun-22 01:30N 46°29' W 002°05'1 1.7
2017-Jun-22 01:00N 46°28' W 002°04'0 0.5
2017-Jun-22 00:30N 46°28' W 002°04'1 1.4
2017-Jun-21 23:56N 46°29' W 002°04'1 2.0
2017-Jun-21 23:30N 46°28' W 002°03'0 0.3
2017-Jun-21 22:59N 46°28' W 002°03'0 0.0
2017-Jun-21 22:29N 46°28' W 002°03'0 0.0
2017-Jun-21 21:59N 46°28' W 002°03'0 0.0
2017-Jun-21 21:26N 46°28' W 002°03'0 0.0
2017-Jun-21 20:59N 46°28' W 002°03'0 0.0
2017-Jun-21 20:29N 46°28' W 002°03'0 0.0
2017-Jun-21 19:59N 46°28' W 002°03'0 0.0
2017-Jun-21 19:29N 46°28' W 002°03'0 0.0
2017-Jun-21 18:59N 46°28' W 002°03'0 0.0
2017-Jun-21 18:29N 46°28' W 002°03'0 0.0
2017-Jun-21 17:59N 46°28' W 002°03'0 0.0
2017-Jun-21 17:29N 46°28' W 002°03'0 0.0
2017-Jun-21 16:59N 46°28' W 002°03'0 0.0
2017-Jun-21 16:26N 46°28' W 002°03'0 0.0
2017-Jun-21 15:56N 46°28' W 002°03'0 0.0
2017-Jun-21 15:29N 46°28' W 002°03'0 0.0
2017-Jun-21 14:59N 46°28' W 002°03'0 0.0
2017-Jun-21 13:59N 46°28' W 002°03'0 0.6
2017-Jun-21 13:30N 46°28' W 002°03'1 1.4
2017-Jun-21 13:00N 46°28' W 002°04'1 1.6
2017-Jun-21 12:30N 46°29' W 002°05'1 2.2
2017-Jun-21 12:00N 46°28' W 002°05'4 7.7
2017-Jun-21 11:30N 46°25' W 002°01'4 7.9
2017-Jun-21 11:00N 46°23' W 001°57'4 7.9
2017-Jun-21 10:30N 46°20' W 001°52'3 6.7
2017-Jun-21 09:59N 46°17' W 001°49'0 0.2
2017-Jun-21 09:29N 46°17' W 001°49'0 0.3
2017-Jun-21 08:59N 46°17' W 001°49'0 0.2
2017-Jun-21 08:29N 46°17' W 001°49'1 1.1
2017-Jun-21 08:00N 46°17' W 001°48'0 0.8
2017-Jun-21 07:30N 46°17' W 001°48'0 0.4
2017-Jun-21 07:00N 46°17' W 001°48'0 0.7
2017-Jun-21 06:30N 46°17' W 001°48'1 1.0
2017-Jun-21 06:00N 46°17' W 001°48'0 0.7
2017-Jun-21 05:29N 46°17' W 001°48'0 0.4
2017-Jun-21 05:00N 46°17' W 001°48'0 0.3
2017-Jun-21 04:30N 46°17' W 001°47'0 0.7
2017-Jun-21 03:52N 46°17' W 001°48'0 0.2
2017-Jun-21 03:30N 46°18' W 001°48'1 1.4
2017-Jun-21 02:59N 46°17' W 001°47'1 1.6
2017-Jun-21 02:27N 46°18' W 001°48'0 0.4
2017-Jun-21 01:59N 46°18' W 001°47'1 0.9
2017-Jun-21 01:23N 46°17' W 001°47'1 1.4
2017-Jun-21 00:59N 46°18' W 001°47'1 1.2
2017-Jun-21 00:30N 46°18' W 001°48'0 0.5
2017-Jun-21 00:00N 46°18' W 001°48'0 0.0
2017-Jun-20 23:30N 46°18' W 001°48'0 0.1
2017-Jun-20 23:00N 46°18' W 001°48'0 0.0
2017-Jun-20 22:30N 46°18' W 001°48'0 0.0
2017-Jun-20 22:00N 46°18' W 001°48'0 0.0
2017-Jun-20 21:30N 46°18' W 001°48'0 0.0
2017-Jun-20 21:00N 46°18' W 001°48'0 0.0
2017-Jun-20 20:30N 46°18' W 001°48'0 0.0
2017-Jun-20 20:00N 46°18' W 001°48'0 0.0
2017-Jun-20 19:30N 46°18' W 001°48'0 0.1
2017-Jun-20 19:00N 46°18' W 001°48'0 0.1
2017-Jun-20 18:30N 46°18' W 001°48'0 0.0
2017-Jun-20 18:00N 46°18' W 001°48'0 0.0
2017-Jun-20 17:30N 46°18' W 001°48'0 0.0
2017-Jun-20 16:51N 46°18' W 001°48'0 0.0
2017-Jun-20 16:06N 46°18' W 001°48'0 0.0
2017-Jun-20 15:57N 46°18' W 001°48'0 0.1
2017-Jun-20 15:21N 46°18' W 001°48'0 0.1
2017-Jun-20 14:57N 46°18' W 001°48'0 0.0
2017-Jun-20 14:30N 46°18' W 001°48'1 1.3
2017-Jun-20 13:30N 46°17' W 001°49'1 1.1
2017-Jun-20 13:00N 46°17' W 001°49'1 1.7
2017-Jun-20 12:30N 46°17' W 001°47'1 1.9
2017-Jun-20 12:00N 46°18' W 001°48'1 2.7
2017-Jun-20 11:30N 46°19' W 001°47'4 8.3
2017-Jun-20 11:00N 46°24' W 001°47'4 8.3
2017-Jun-20 10:30N 46°28' W 001°47'2 4.3
2017-Jun-20 09:59N 46°30' W 001°47'0 0.0
2017-Jun-20 09:29N 46°30' W 001°47'0 0.0
2017-Jun-20 09:00N 46°30' W 001°47'0 0.3
2017-Jun-20 08:30N 46°30' W 001°47'0 0.0
2017-Jun-20 08:00N 46°30' W 001°47'0 0.0
2017-Jun-20 07:30N 46°30' W 001°47'0 0.0
2017-Jun-20 07:00N 46°30' W 001°47'0 0.0
2017-Jun-20 06:30N 46°30' W 001°47'  

Dump ship's entire track history